createdAt,value
2023-03-31T00:00:57.794Z,26.76
2023-03-31T00:01:57.824Z,26.79
2023-03-31T00:02:57.979Z,26.70
2023-03-31T00:03:58.148Z,26.75
2023-03-31T00:04:58.076Z,26.72
2023-03-31T00:05:57.944Z,26.75
2023-03-31T00:06:58.010Z,26.72
2023-03-31T00:07:58.064Z,26.72
2023-03-31T00:08:58.099Z,26.68
2023-03-31T00:10:07.142Z,26.70
2023-03-31T00:10:59.152Z,26.69
2023-03-31T00:11:58.152Z,26.69
2023-03-31T00:12:58.197Z,26.69
2023-03-31T00:13:58.133Z,26.65
2023-03-31T00:14:58.153Z,26.70
2023-03-31T00:15:58.146Z,26.68
2023-03-31T00:16:58.213Z,26.69
2023-03-31T00:17:58.129Z,26.66
2023-03-31T00:18:58.120Z,26.65
2023-03-31T00:19:58.102Z,26.65
2023-03-31T00:20:58.869Z,26.63
2023-03-31T00:21:58.132Z,26.62
2023-03-31T00:22:58.129Z,26.62
2023-03-31T00:23:58.159Z,26.59
2023-03-31T00:24:58.171Z,26.60
2023-03-31T00:25:58.195Z,26.56
2023-03-31T00:26:58.221Z,26.59
2023-03-31T00:27:58.245Z,26.53
2023-03-31T00:28:58.305Z,26.59
2023-03-31T00:29:58.308Z,26.55
2023-03-31T00:30:58.334Z,26.55
2023-03-31T00:31:58.371Z,26.56
2023-03-31T00:32:58.379Z,26.52
2023-03-31T00:33:58.391Z,26.52
2023-03-31T00:34:58.423Z,26.48
2023-03-31T00:35:58.463Z,26.50
2023-03-31T00:36:58.480Z,26.52
2023-03-31T00:37:58.493Z,26.46
2023-03-31T00:38:58.491Z,26.47
2023-03-31T00:39:58.519Z,26.44
2023-03-31T00:40:58.575Z,26.45
2023-03-31T00:41:58.647Z,26.44
2023-03-31T00:42:58.662Z,26.45
2023-03-31T00:43:58.691Z,26.42
2023-03-31T00:44:58.735Z,26.44
2023-03-31T00:45:58.797Z,26.40
2023-03-31T00:46:58.788Z,26.42
2023-03-31T00:47:58.827Z,26.46
2023-03-31T00:48:58.871Z,26.40
2023-03-31T00:49:59.141Z,26.42
2023-03-31T00:50:58.929Z,26.35
2023-03-31T00:51:58.957Z,26.35
2023-03-31T00:52:59.030Z,26.36
2023-03-31T00:53:59.083Z,26.38
2023-03-31T00:54:59.143Z,26.35
2023-03-31T00:55:59.133Z,26.35
2023-03-31T00:56:59.214Z,26.32
2023-03-31T00:57:59.190Z,26.31
2023-03-31T00:58:59.258Z,26.28
2023-03-31T00:59:59.281Z,26.34
2023-03-31T01:00:59.337Z,26.28
2023-03-31T01:01:59.408Z,26.31
2023-03-31T01:02:59.407Z,26.29
2023-03-31T01:03:59.592Z,26.29
2023-03-31T01:04:59.495Z,26.25
2023-03-31T01:05:59.465Z,26.28
2023-03-31T01:06:59.494Z,26.25
2023-03-31T01:07:59.512Z,26.29
2023-03-31T01:08:59.548Z,26.26
2023-03-31T01:09:59.594Z,26.22
2023-03-31T01:10:59.626Z,26.22
2023-03-31T01:11:59.674Z,26.22
2023-03-31T01:12:59.707Z,26.22
2023-03-31T01:13:59.734Z,26.22
2023-03-31T01:14:59.806Z,26.19
2023-03-31T01:15:59.826Z,26.15
2023-03-31T01:16:59.899Z,26.15
2023-03-31T01:17:59.983Z,26.19
2023-03-31T01:18:59.955Z,26.18
2023-03-31T01:19:59.973Z,26.15
2023-03-31T01:21:00.006Z,26.19
2023-03-31T01:22:00.067Z,26.19
2023-03-31T01:23:00.136Z,26.14
2023-03-31T01:24:00.175Z,26.14
2023-03-31T01:25:00.251Z,26.09
2023-03-31T01:26:00.309Z,26.12
2023-03-31T01:27:00.352Z,26.12
2023-03-31T01:28:00.402Z,26.09
2023-03-31T01:29:00.468Z,26.14
2023-03-31T01:30:00.520Z,26.11
2023-03-31T01:31:00.542Z,26.11
2023-03-31T01:32:00.541Z,26.09
2023-03-31T01:33:00.634Z,26.15
2023-03-31T01:34:00.639Z,26.07
2023-03-31T01:35:00.714Z,26.09
2023-03-31T01:36:00.799Z,26.05
2023-03-31T01:37:00.801Z,26.07
2023-03-31T01:38:00.831Z,26.05
2023-03-31T01:39:00.858Z,26.08
2023-03-31T01:40:00.887Z,26.04
2023-03-31T01:41:00.921Z,26.02
2023-03-31T01:42:00.969Z,26.05
2023-03-31T01:43:01.009Z,26.01
2023-03-31T01:44:01.031Z,26.03
2023-03-31T01:45:01.063Z,26.02
2023-03-31T01:46:01.137Z,26.00
2023-03-31T01:47:01.130Z,26.01
2023-03-31T01:48:01.182Z,26.01
2023-03-31T01:49:01.219Z,25.99
2023-03-31T01:50:01.254Z,25.96
2023-03-31T01:51:01.289Z,25.97
2023-03-31T01:52:01.316Z,25.95
2023-03-31T01:53:01.394Z,25.95
2023-03-31T01:54:01.401Z,25.95
2023-03-31T01:55:01.475Z,25.96
2023-03-31T01:56:01.516Z,25.95
2023-03-31T01:57:01.604Z,25.92
2023-03-31T01:58:01.576Z,25.91
2023-03-31T01:59:01.604Z,25.91
2023-03-31T02:00:01.640Z,25.88
2023-03-31T02:01:01.677Z,25.87
2023-03-31T02:02:01.774Z,25.88
2023-03-31T02:03:01.821Z,25.88
2023-03-31T02:04:01.835Z,25.81
2023-03-31T02:05:01.782Z,25.87
2023-03-31T02:06:01.815Z,25.85
2023-03-31T02:07:01.823Z,25.84
2023-03-31T02:08:01.859Z,25.80
2023-03-31T02:09:01.903Z,25.81
2023-03-31T02:10:01.925Z,25.84
2023-03-31T02:11:01.940Z,25.80
2023-03-31T02:12:01.970Z,25.80
2023-03-31T02:13:02.007Z,25.82
2023-03-31T02:14:02.114Z,25.80
2023-03-31T02:15:02.080Z,25.74
2023-03-31T02:16:02.124Z,25.78
2023-03-31T02:17:02.150Z,25.73
2023-03-31T02:18:02.267Z,25.75
2023-03-31T02:19:02.261Z,25.71
2023-03-31T02:20:02.234Z,25.74
2023-03-31T02:21:02.256Z,25.74
2023-03-31T02:22:02.293Z,25.73
2023-03-31T02:23:02.310Z,25.74
2023-03-31T02:24:02.369Z,25.68
2023-03-31T02:25:02.445Z,25.70
2023-03-31T02:26:02.463Z,25.68
2023-03-31T02:27:02.539Z,25.71
2023-03-31T02:28:02.606Z,25.70
2023-03-31T02:29:02.646Z,25.70
2023-03-31T02:30:02.679Z,25.73
2023-03-31T02:31:02.759Z,25.67
2023-03-31T02:32:02.816Z,25.67
2023-03-31T02:33:02.819Z,25.68
2023-03-31T02:34:02.865Z,25.63
2023-03-31T02:35:02.909Z,25.68
2023-03-31T02:36:02.964Z,25.61
2023-03-31T02:37:02.926Z,25.61
2023-03-31T02:38:02.962Z,25.64
2023-03-31T02:39:03.005Z,25.65
2023-03-31T02:40:03.067Z,25.55
2023-03-31T02:41:03.148Z,25.57
2023-03-31T02:42:03.203Z,25.60
2023-03-31T02:43:03.283Z,25.60
2023-03-31T02:44:03.309Z,25.58
2023-03-31T02:45:03.387Z,25.57
2023-03-31T02:46:03.590Z,25.58
2023-03-31T02:47:03.493Z,25.57
2023-03-31T02:48:03.594Z,25.50
2023-03-31T02:49:03.609Z,25.54
2023-03-31T02:50:03.675Z,25.57
2023-03-31T02:51:03.700Z,25.51
2023-03-31T02:52:03.726Z,25.54
2023-03-31T02:53:03.763Z,25.53
2023-03-31T02:54:03.791Z,25.54
2023-03-31T02:55:03.813Z,25.50
2023-03-31T02:56:03.977Z,25.50
2023-03-31T02:57:03.937Z,25.47
2023-03-31T02:58:03.931Z,25.50
2023-03-31T02:59:03.964Z,25.53
2023-03-31T03:00:03.994Z,25.50
2023-03-31T03:01:04.059Z,25.47
2023-03-31T03:02:04.099Z,25.48
2023-03-31T03:03:04.269Z,25.47
2023-03-31T03:04:04.212Z,25.48
2023-03-31T03:05:04.255Z,25.44
2023-03-31T03:06:05.489Z,25.47
2023-03-31T03:07:04.331Z,25.47
2023-03-31T03:08:04.352Z,25.43
2023-03-31T03:09:04.479Z,25.44
2023-03-31T03:10:04.436Z,25.43
2023-03-31T03:11:04.483Z,25.44
2023-03-31T03:12:04.522Z,25.43
2023-03-31T03:13:04.530Z,25.43
2023-03-31T03:14:04.563Z,25.45
2023-03-31T03:15:04.611Z,25.43
2023-03-31T03:16:04.827Z,25.40
2023-03-31T03:17:04.679Z,25.44
2023-03-31T03:18:04.739Z,25.37
2023-03-31T03:19:04.751Z,25.37
2023-03-31T03:20:04.779Z,25.38
2023-03-31T03:21:04.847Z,25.40
2023-03-31T03:22:06.397Z,25.36
2023-03-31T03:23:05.016Z,25.37
2023-03-31T03:24:05.067Z,25.39
2023-03-31T03:25:05.101Z,25.37
2023-03-31T03:26:05.295Z,25.36
2023-03-31T03:27:05.165Z,25.37
2023-03-31T03:28:05.183Z,25.33
2023-03-31T03:29:05.278Z,25.34
2023-03-31T03:30:05.286Z,25.36
2023-03-31T03:31:05.308Z,25.31
2023-03-31T03:32:05.346Z,25.33
2023-03-31T03:33:05.474Z,25.33
2023-03-31T03:34:05.566Z,25.31
2023-03-31T03:35:05.626Z,25.31
2023-03-31T03:36:05.924Z,25.33
2023-03-31T03:37:05.643Z,25.30
2023-03-31T03:38:05.712Z,25.31
2023-03-31T03:39:05.713Z,25.24
2023-03-31T03:40:05.739Z,25.31
2023-03-31T03:41:05.828Z,25.24
2023-03-31T03:42:05.878Z,25.29
2023-03-31T03:43:05.839Z,25.27
2023-03-31T03:44:05.886Z,25.30
2023-03-31T03:45:05.926Z,25.26
2023-03-31T03:46:06.185Z,25.31
2023-03-31T03:47:05.984Z,25.21
2023-03-31T03:48:06.064Z,25.24
2023-03-31T03:49:06.039Z,25.27
2023-03-31T03:50:06.071Z,25.23
2023-03-31T03:51:06.109Z,25.24
2023-03-31T03:52:06.155Z,25.22
2023-03-31T03:53:06.219Z,25.26
2023-03-31T03:54:06.246Z,25.20
2023-03-31T03:55:06.287Z,25.31
2023-03-31T03:56:06.484Z,25.20
2023-03-31T03:57:06.372Z,25.22
2023-03-31T03:58:06.390Z,25.20
2023-03-31T03:59:06.441Z,25.23
2023-03-31T04:00:06.452Z,25.17
2023-03-31T04:01:06.514Z,25.14
2023-03-31T04:02:06.554Z,25.20
2023-03-31T04:03:06.604Z,25.20
2023-03-31T04:04:06.601Z,25.23
2023-03-31T04:05:06.706Z,25.20
2023-03-31T04:06:06.842Z,25.11
2023-03-31T04:07:06.697Z,25.20
2023-03-31T04:08:06.713Z,25.19
2023-03-31T04:09:06.783Z,25.21
2023-03-31T04:10:06.845Z,25.16
2023-03-31T04:11:06.868Z,25.14
2023-03-31T04:12:06.920Z,25.13
2023-03-31T04:13:06.948Z,25.17
2023-03-31T04:14:07.015Z,25.16
2023-03-31T04:15:07.048Z,25.16
2023-03-31T04:16:07.199Z,25.17
2023-03-31T04:17:07.132Z,25.10
2023-03-31T04:18:07.163Z,25.19
2023-03-31T04:19:07.198Z,25.14
2023-03-31T04:20:07.222Z,25.16
2023-03-31T04:21:07.253Z,25.14
2023-03-31T04:22:07.306Z,25.14
2023-03-31T04:23:07.314Z,25.09
2023-03-31T04:24:07.433Z,25.11
2023-03-31T04:25:07.461Z,25.19
2023-03-31T04:26:07.823Z,25.13
2023-03-31T04:27:07.560Z,25.10
2023-03-31T04:28:07.581Z,25.19
2023-03-31T04:29:07.704Z,25.16
2023-03-31T04:30:07.728Z,25.13
2023-03-31T04:31:07.768Z,25.14
2023-03-31T04:32:07.847Z,25.11
2023-03-31T04:33:07.866Z,25.16
2023-03-31T04:34:07.872Z,25.17
2023-03-31T04:35:07.916Z,25.13
2023-03-31T04:36:08.371Z,25.13
2023-03-31T04:37:08.013Z,25.09
2023-03-31T04:38:08.028Z,25.10
2023-03-31T04:39:08.057Z,25.10
2023-03-31T04:40:08.076Z,25.14
2023-03-31T04:41:08.136Z,25.14
2023-03-31T04:42:08.158Z,25.11
2023-03-31T04:43:08.170Z,25.10
2023-03-31T04:44:08.208Z,25.09
2023-03-31T04:45:08.245Z,25.14
2023-03-31T04:46:08.605Z,25.13
2023-03-31T04:47:08.337Z,25.14
2023-03-31T04:48:08.415Z,25.13
2023-03-31T04:49:08.418Z,25.13
2023-03-31T04:50:09.717Z,25.09
2023-03-31T04:51:08.417Z,25.11
2023-03-31T04:52:08.412Z,25.11
2023-03-31T04:53:08.401Z,25.10
2023-03-31T04:54:08.406Z,25.11
2023-03-31T04:55:08.396Z,25.11
2023-03-31T04:56:08.712Z,25.10
2023-03-31T04:57:08.463Z,25.06
2023-03-31T04:58:08.378Z,25.10
2023-03-31T04:59:08.356Z,25.11
2023-03-31T05:00:08.355Z,25.11
2023-03-31T05:01:08.422Z,25.10
2023-03-31T05:02:08.382Z,25.07
2023-03-31T05:03:08.439Z,25.09
2023-03-31T05:04:08.354Z,25.04
2023-03-31T05:05:08.337Z,25.09
2023-03-31T05:06:08.846Z,25.10
2023-03-31T05:07:08.330Z,25.10
2023-03-31T05:08:08.320Z,25.11
2023-03-31T05:09:08.356Z,25.07
2023-03-31T05:10:08.293Z,25.09
2023-03-31T05:11:08.341Z,25.11
2023-03-31T05:12:08.308Z,25.10
2023-03-31T05:13:08.280Z,24.99
2023-03-31T05:14:08.304Z,25.09
2023-03-31T05:15:08.297Z,25.06
2023-03-31T05:16:08.706Z,25.04
2023-03-31T05:17:08.267Z,25.06
2023-03-31T05:18:08.338Z,25.06
2023-03-31T05:19:08.258Z,25.04
2023-03-31T05:20:08.422Z,25.02
2023-03-31T05:21:08.456Z,25.06
2023-03-31T05:22:08.438Z,25.05
2023-03-31T05:23:08.520Z,25.07
2023-03-31T05:24:08.547Z,25.04
2023-03-31T05:25:08.613Z,25.05
2023-03-31T05:26:08.838Z,25.19
2023-03-31T05:27:08.671Z,25.29
2023-03-31T05:28:08.709Z,25.80
2023-03-31T05:29:08.738Z,25.75
2023-03-31T05:30:08.810Z,25.72
2023-03-31T05:31:08.891Z,25.78
2023-03-31T05:32:08.967Z,26.43
2023-03-31T05:33:09.272Z,27.31
2023-03-31T05:34:08.990Z,27.16
2023-03-31T05:35:09.041Z,27.38
2023-03-31T05:36:09.861Z,26.95
2023-03-31T05:37:09.077Z,27.20
2023-03-31T05:38:09.114Z,27.40
2023-03-31T05:39:09.187Z,28.47
2023-03-31T05:40:09.258Z,27.93
2023-03-31T05:41:09.316Z,27.88
2023-03-31T05:42:09.301Z,27.93
2023-03-31T05:43:09.773Z,28.21
2023-03-31T05:44:09.403Z,28.10
2023-03-31T05:45:09.603Z,28.21
2023-03-31T05:46:09.642Z,28.17
2023-03-31T05:47:09.534Z,28.32
2023-03-31T05:48:09.797Z,28.34
2023-03-31T05:49:09.618Z,28.33
2023-03-31T05:50:09.731Z,28.43
2023-03-31T05:51:09.703Z,28.46
2023-03-31T05:52:09.729Z,28.55
2023-03-31T05:53:10.248Z,28.58
2023-03-31T05:54:09.851Z,28.47
2023-03-31T05:55:09.892Z,28.44
2023-03-31T05:56:10.115Z,28.33
2023-03-31T05:57:10.073Z,28.18
2023-03-31T05:58:10.356Z,27.79
2023-03-31T05:59:10.006Z,27.63
2023-03-31T06:00:10.009Z,27.44
2023-03-31T06:01:10.418Z,27.79
2023-03-31T06:02:10.161Z,28.32
2023-03-31T06:03:10.337Z,28.43
2023-03-31T06:04:10.248Z,28.11
2023-03-31T06:05:10.241Z,28.34
2023-03-31T06:06:10.297Z,28.35
2023-03-31T06:07:10.352Z,28.55
2023-03-31T06:08:10.429Z,28.44
2023-03-31T06:09:10.500Z,28.42
2023-03-31T06:10:10.668Z,28.48
2023-03-31T06:11:10.604Z,28.58
2023-03-31T06:12:10.631Z,28.71
2023-03-31T06:13:10.795Z,28.81
2023-03-31T06:14:10.775Z,28.94
2023-03-31T06:15:10.778Z,29.01
2023-03-31T06:16:10.800Z,28.97
2023-03-31T06:17:10.932Z,29.07
2023-03-31T06:18:10.916Z,28.94
2023-03-31T06:19:10.822Z,28.54
2023-03-31T06:20:26.535Z,28.33
2023-03-31T06:21:11.850Z,27.85
2023-03-31T06:22:10.838Z,27.82
2023-03-31T06:23:10.868Z,27.86
2023-03-31T06:24:10.860Z,28.05
2023-03-31T06:25:10.912Z,27.99
2023-03-31T06:26:10.816Z,28.23
2023-03-31T06:27:10.808Z,28.22
2023-03-31T06:28:10.809Z,28.08
2023-03-31T06:29:10.852Z,28.07
2023-03-31T06:30:10.803Z,28.07
2023-03-31T06:31:10.843Z,28.21
2023-03-31T06:32:10.863Z,28.24
2023-03-31T06:33:11.352Z,28.48
2023-03-31T06:34:11.276Z,28.34
2023-03-31T06:35:10.785Z,28.68
2023-03-31T06:36:10.931Z,28.68
2023-03-31T06:37:10.905Z,28.60
2023-03-31T06:38:10.998Z,28.74
2023-03-31T06:39:11.001Z,28.69
2023-03-31T06:40:11.072Z,28.58
2023-03-31T06:41:11.050Z,28.91
2023-03-31T06:42:11.086Z,28.74
2023-03-31T06:43:11.149Z,28.74
2023-03-31T06:44:11.223Z,28.91
2023-03-31T06:45:12.269Z,28.72
2023-03-31T06:46:11.618Z,29.28
2023-03-31T06:47:11.389Z,28.94
2023-03-31T06:48:11.409Z,28.90
2023-03-31T06:49:11.376Z,28.90
2023-03-31T06:50:11.370Z,28.94
2023-03-31T06:51:11.373Z,28.82
2023-03-31T06:52:11.380Z,28.81
2023-03-31T06:53:11.788Z,28.84
2023-03-31T06:54:11.499Z,28.78
2023-03-31T06:55:11.561Z,28.82
2023-03-31T06:56:11.618Z,28.83
2023-03-31T06:57:11.723Z,28.84
2023-03-31T06:58:11.733Z,28.96
2023-03-31T06:59:11.786Z,29.01
2023-03-31T07:00:11.848Z,28.94
2023-03-31T07:01:12.278Z,28.82
2023-03-31T07:02:11.928Z,28.77
2023-03-31T07:03:12.398Z,28.77
2023-03-31T07:04:11.951Z,28.79
2023-03-31T07:05:11.982Z,28.91
2023-03-31T07:06:11.995Z,28.84
2023-03-31T07:07:12.034Z,28.90
2023-03-31T07:08:12.085Z,29.02
2023-03-31T07:09:12.305Z,29.44
2023-03-31T07:10:12.108Z,29.45
2023-03-31T07:11:12.784Z,29.46
2023-03-31T07:12:12.087Z,29.30
2023-03-31T07:13:12.140Z,29.16
2023-03-31T07:14:12.222Z,28.74
2023-03-31T07:15:12.269Z,28.40
2023-03-31T07:16:12.282Z,28.21
2023-03-31T07:17:12.327Z,27.98
2023-03-31T07:18:12.374Z,27.96
2023-03-31T07:19:12.794Z,27.94
2023-03-31T07:20:12.433Z,27.84
2023-03-31T07:21:12.543Z,27.77
2023-03-31T07:22:12.549Z,27.85
2023-03-31T07:23:12.554Z,27.90
2023-03-31T07:24:12.566Z,27.86
2023-03-31T07:25:12.604Z,27.91
2023-03-31T07:26:12.620Z,27.96
2023-03-31T07:27:12.600Z,28.09
2023-03-31T07:28:12.636Z,28.11
2023-03-31T07:29:12.794Z,28.35
2023-03-31T07:30:12.713Z,28.02
2023-03-31T07:31:12.792Z,28.48
2023-03-31T07:32:12.953Z,28.53
2023-03-31T07:33:12.895Z,28.67
2023-03-31T07:34:13.288Z,28.47
2023-03-31T07:35:12.976Z,28.52
2023-03-31T07:36:14.108Z,28.46
2023-03-31T07:37:13.022Z,28.43
2023-03-31T07:38:13.012Z,28.67
2023-03-31T07:39:13.296Z,28.45
2023-03-31T07:40:13.315Z,28.47
2023-03-31T07:41:13.136Z,28.43
2023-03-31T07:42:13.136Z,28.51
2023-03-31T07:43:13.148Z,28.66
2023-03-31T07:44:13.192Z,28.70
2023-03-31T07:45:13.326Z,28.61
2023-03-31T07:46:13.224Z,28.16
2023-03-31T07:47:13.215Z,28.67
2023-03-31T07:48:13.238Z,29.17
2023-03-31T07:49:13.273Z,29.32
2023-03-31T07:50:13.318Z,29.44
2023-03-31T07:51:13.321Z,29.53
2023-03-31T07:52:13.433Z,29.43
2023-03-31T07:53:13.427Z,29.53
2023-03-31T07:54:13.452Z,29.54
2023-03-31T07:55:13.466Z,29.90
2023-03-31T07:56:13.438Z,30.06
2023-03-31T07:57:13.479Z,30.27
2023-03-31T07:58:13.490Z,30.39
2023-03-31T07:59:13.524Z,30.45
2023-03-31T08:00:13.568Z,30.44
2023-03-31T08:01:13.597Z,30.42
2023-03-31T08:02:13.735Z,30.70
2023-03-31T08:03:13.730Z,30.48
2023-03-31T08:04:13.808Z,30.08
2023-03-31T08:05:13.750Z,30.25
2023-03-31T08:06:13.754Z,30.08
2023-03-31T08:07:13.806Z,29.29
2023-03-31T08:08:13.810Z,28.35
2023-03-31T08:09:14.346Z,28.45
2023-03-31T08:10:13.956Z,28.50
2023-03-31T08:11:13.983Z,28.41
2023-03-31T08:12:14.021Z,28.45
2023-03-31T08:13:14.066Z,28.32
2023-03-31T08:14:14.116Z,28.42
2023-03-31T08:15:14.168Z,28.62
2023-03-31T08:16:14.380Z,28.88
2023-03-31T08:17:14.294Z,28.91
2023-03-31T08:18:14.330Z,29.33
2023-03-31T08:19:14.460Z,29.45
2023-03-31T08:20:14.528Z,29.11
2023-03-31T08:21:14.890Z,29.12
2023-03-31T08:22:14.556Z,28.03
2023-03-31T08:23:14.689Z,26.61
2023-03-31T08:24:14.595Z,26.93
2023-03-31T08:25:14.696Z,26.45
2023-03-31T08:26:17.356Z,26.89
2023-03-31T08:27:14.836Z,26.87
2023-03-31T08:28:14.635Z,26.97
2023-03-31T08:29:14.628Z,27.14
2023-03-31T08:30:14.640Z,26.82
2023-03-31T08:31:14.664Z,26.78
2023-03-31T08:32:14.622Z,26.90
2023-03-31T08:33:14.661Z,27.14
2023-03-31T08:34:14.691Z,26.77
2023-03-31T08:35:14.617Z,26.74
2023-03-31T08:36:14.703Z,27.16
2023-03-31T08:37:14.826Z,27.52
2023-03-31T08:38:14.585Z,27.54
2023-03-31T08:39:14.815Z,27.62
2023-03-31T08:40:14.630Z,27.48
2023-03-31T08:41:14.580Z,27.83
2023-03-31T08:42:16.165Z,27.65
2023-03-31T08:43:14.545Z,27.60
2023-03-31T08:44:14.566Z,27.90
2023-03-31T08:45:14.527Z,27.83
2023-03-31T08:46:14.550Z,27.93
2023-03-31T08:47:14.542Z,27.94
2023-03-31T08:48:14.606Z,28.21
2023-03-31T08:49:14.515Z,28.47
2023-03-31T08:50:14.502Z,28.86
2023-03-31T08:51:14.521Z,29.24
2023-03-31T08:52:14.847Z,29.24
2023-03-31T08:53:14.504Z,29.58
2023-03-31T08:54:15.244Z,29.66
2023-03-31T08:55:14.477Z,29.81
2023-03-31T08:56:14.454Z,29.91
2023-03-31T08:57:14.569Z,30.00
2023-03-31T08:58:14.599Z,30.34
2023-03-31T08:59:14.861Z,30.38
2023-03-31T09:00:14.695Z,30.88
2023-03-31T09:01:14.744Z,31.20
2023-03-31T09:02:14.872Z,31.20
2023-03-31T09:03:14.941Z,31.13
2023-03-31T09:04:14.931Z,31.43
2023-03-31T09:05:14.817Z,31.24
2023-03-31T09:06:15.080Z,31.27
2023-03-31T09:07:14.953Z,30.84
2023-03-31T09:08:14.992Z,30.53
2023-03-31T09:09:15.054Z,30.72
2023-03-31T09:10:15.313Z,30.61
2023-03-31T09:11:15.146Z,30.98
2023-03-31T09:12:15.314Z,30.73
2023-03-31T09:13:15.204Z,30.71
2023-03-31T09:14:15.224Z,30.67
2023-03-31T09:15:16.360Z,30.62
2023-03-31T09:16:16.753Z,31.88
2023-03-31T09:17:15.274Z,32.40
2023-03-31T09:18:15.273Z,31.84
2023-03-31T09:19:15.265Z,31.65
2023-03-31T09:20:15.280Z,31.25
2023-03-31T09:21:15.345Z,31.05
2023-03-31T09:22:15.358Z,31.44
2023-03-31T09:23:15.415Z,31.05
2023-03-31T09:24:15.523Z,31.26
2023-03-31T09:25:15.488Z,31.24
2023-03-31T09:26:15.526Z,31.38
2023-03-31T09:27:15.494Z,31.57
2023-03-31T09:28:15.493Z,31.76
2023-03-31T09:29:15.550Z,31.92
2023-03-31T09:30:15.842Z,32.14
2023-03-31T09:31:15.572Z,32.16
2023-03-31T09:32:15.578Z,32.16
2023-03-31T09:33:15.629Z,32.00
2023-03-31T09:34:15.672Z,32.09
2023-03-31T09:35:15.655Z,32.33
2023-03-31T09:36:15.657Z,32.73
2023-03-31T09:37:15.709Z,32.92
2023-03-31T09:38:15.758Z,32.69
2023-03-31T09:39:15.832Z,32.82
2023-03-31T09:40:16.376Z,32.83
2023-03-31T09:41:15.862Z,32.82
2023-03-31T09:42:15.916Z,33.09
2023-03-31T09:43:15.952Z,32.80
2023-03-31T09:44:16.049Z,32.92
2023-03-31T09:45:16.060Z,32.66
2023-03-31T09:46:16.299Z,32.88
2023-03-31T09:47:16.269Z,32.87
2023-03-31T09:48:16.245Z,32.42
2023-03-31T09:49:16.281Z,32.29
2023-03-31T09:50:16.344Z,32.46
2023-03-31T09:51:16.418Z,32.50
2023-03-31T09:52:16.466Z,32.49
2023-03-31T09:53:16.533Z,32.46
2023-03-31T09:54:16.836Z,32.75
2023-03-31T09:55:25.228Z,32.73
2023-03-31T09:56:17.643Z,32.76
2023-03-31T09:57:16.734Z,32.83
2023-03-31T09:58:16.660Z,32.83
2023-03-31T09:59:16.628Z,32.86
2023-03-31T10:00:17.049Z,32.75
2023-03-31T10:01:16.642Z,32.64
2023-03-31T10:02:16.617Z,32.53
2023-03-31T10:03:16.666Z,32.63
2023-03-31T10:04:16.928Z,32.96
2023-03-31T10:05:16.617Z,32.79
2023-03-31T10:06:16.671Z,31.80
2023-03-31T10:07:16.764Z,31.96
2023-03-31T10:08:16.739Z,31.76
2023-03-31T10:09:16.736Z,31.01
2023-03-31T10:10:16.907Z,31.85
2023-03-31T10:11:16.803Z,32.23
2023-03-31T10:12:16.875Z,32.30
2023-03-31T10:13:16.891Z,32.55
2023-03-31T10:14:16.962Z,32.37
2023-03-31T10:15:17.337Z,32.67
2023-03-31T10:16:17.018Z,32.51
2023-03-31T10:17:17.036Z,32.51
2023-03-31T10:18:17.068Z,32.13
2023-03-31T10:19:17.065Z,31.67
2023-03-31T10:20:17.354Z,31.69
2023-03-31T10:21:17.061Z,32.20
2023-03-31T10:22:17.110Z,32.04
2023-03-31T10:23:17.155Z,33.10
2023-03-31T10:24:17.195Z,32.52
2023-03-31T10:25:17.265Z,32.97
2023-03-31T10:26:17.262Z,32.76
2023-03-31T10:27:19.543Z,32.86
2023-03-31T10:28:17.297Z,33.09
2023-03-31T10:29:17.297Z,33.16
2023-03-31T10:30:17.357Z,33.40
2023-03-31T10:31:17.286Z,33.62
2023-03-31T10:32:17.259Z,33.75
2023-03-31T10:33:22.685Z,33.94
2023-03-31T10:34:18.241Z,33.75
2023-03-31T10:35:17.234Z,33.44
2023-03-31T10:36:17.311Z,33.21
2023-03-31T10:37:17.230Z,33.23
2023-03-31T10:38:17.272Z,33.17
2023-03-31T10:39:17.236Z,33.02
2023-03-31T10:40:17.383Z,33.07
2023-03-31T10:41:17.279Z,33.06
2023-03-31T10:42:17.191Z,33.05
2023-03-31T10:43:17.179Z,33.13
2023-03-31T10:44:17.194Z,32.86
2023-03-31T10:45:29.702Z,32.86
2023-03-31T10:46:18.308Z,32.79
2023-03-31T10:47:17.247Z,33.02
2023-03-31T10:48:17.245Z,33.11
2023-03-31T10:49:17.323Z,33.06
2023-03-31T10:50:17.417Z,33.25
2023-03-31T10:51:17.247Z,33.25
2023-03-31T10:52:17.204Z,33.21
2023-03-31T10:53:17.209Z,33.69
2023-03-31T10:54:17.193Z,33.47
2023-03-31T10:55:17.363Z,33.25
2023-03-31T10:56:17.403Z,33.16
2023-03-31T10:57:17.218Z,33.13
2023-03-31T10:58:17.174Z,32.99
2023-03-31T10:59:17.174Z,33.58
2023-03-31T11:00:17.205Z,33.27
2023-03-31T11:01:17.391Z,33.17
2023-03-31T11:02:17.138Z,32.96
2023-03-31T11:03:17.269Z,33.01
2023-03-31T11:04:17.205Z,32.93
2023-03-31T11:05:17.239Z,32.94
2023-03-31T11:06:17.372Z,32.95
2023-03-31T11:07:17.286Z,32.90
2023-03-31T11:08:19.378Z,32.80
2023-03-31T11:09:17.358Z,32.87
2023-03-31T11:10:17.307Z,32.73
2023-03-31T11:11:17.260Z,32.95
2023-03-31T11:12:17.275Z,32.93
2023-03-31T11:13:17.282Z,32.72
2023-03-31T11:14:17.245Z,32.77
2023-03-31T11:15:17.277Z,32.66
2023-03-31T11:16:17.299Z,32.66
2023-03-31T11:17:17.385Z,32.57
2023-03-31T11:18:17.288Z,32.46
2023-03-31T11:19:17.210Z,32.18
2023-03-31T11:20:17.269Z,32.09
2023-03-31T11:21:17.191Z,31.79
2023-03-31T11:22:17.189Z,31.71
2023-03-31T11:23:17.192Z,31.77
2023-03-31T11:24:17.171Z,31.72
2023-03-31T11:25:17.175Z,31.86
2023-03-31T11:26:17.169Z,31.62
2023-03-31T11:27:17.185Z,31.42
2023-03-31T11:28:17.165Z,31.46
2023-03-31T11:29:17.154Z,31.38
2023-03-31T11:30:17.168Z,31.43
2023-03-31T11:31:17.164Z,31.37
2023-03-31T11:32:17.106Z,31.24
2023-03-31T11:33:17.162Z,31.21
2023-03-31T11:34:17.112Z,31.19
2023-03-31T11:35:17.094Z,31.27
2023-03-31T11:36:17.189Z,31.33
2023-03-31T11:37:17.103Z,31.18
2023-03-31T11:38:17.087Z,31.17
2023-03-31T11:39:17.093Z,31.18
2023-03-31T11:40:17.084Z,31.19
2023-03-31T11:41:17.091Z,31.13
2023-03-31T11:42:17.053Z,31.16
2023-03-31T11:43:17.063Z,31.16
2023-03-31T11:44:17.042Z,31.14
2023-03-31T11:45:17.055Z,31.12
2023-03-31T11:46:17.095Z,31.15
2023-03-31T11:47:17.038Z,31.22
2023-03-31T11:48:17.074Z,31.12
2023-03-31T11:49:17.014Z,31.11
2023-03-31T11:50:17.023Z,31.06
2023-03-31T11:51:17.004Z,31.07
2023-03-31T11:52:16.998Z,31.04
2023-03-31T11:53:16.985Z,31.24
2023-03-31T11:54:16.992Z,31.01
2023-03-31T11:55:16.983Z,31.00
2023-03-31T11:56:16.973Z,30.97
2023-03-31T11:57:16.994Z,30.98
2023-03-31T11:58:16.971Z,30.97
2023-03-31T11:59:16.945Z,30.93
2023-03-31T12:00:16.953Z,30.85
2023-03-31T12:01:16.945Z,30.85
2023-03-31T12:02:17.397Z,30.89
2023-03-31T12:03:17.026Z,30.84
2023-03-31T12:04:16.984Z,30.84
2023-03-31T12:05:16.947Z,30.80
2023-03-31T12:06:17.039Z,30.78
2023-03-31T12:07:16.958Z,30.81
2023-03-31T12:08:17.005Z,30.79
2023-03-31T12:09:17.058Z,30.80
2023-03-31T12:10:17.105Z,30.82
2023-03-31T12:11:17.152Z,30.84
2023-03-31T12:12:17.189Z,30.84
2023-03-31T12:13:17.189Z,30.83
2023-03-31T12:14:17.225Z,30.89
2023-03-31T12:15:17.253Z,30.93
2023-03-31T12:16:17.383Z,30.92
2023-03-31T12:17:17.405Z,31.01
2023-03-31T12:18:17.425Z,31.02
2023-03-31T12:19:17.502Z,31.03
2023-03-31T12:20:17.548Z,31.10
2023-03-31T12:21:17.605Z,30.96
2023-03-31T12:22:17.661Z,31.07
2023-03-31T12:23:17.734Z,31.21
2023-03-31T12:24:17.813Z,31.36
2023-03-31T12:25:17.843Z,31.39
2023-03-31T12:26:17.910Z,31.45
2023-03-31T12:27:17.952Z,31.45
2023-03-31T12:28:17.949Z,31.51
2023-03-31T12:29:17.934Z,31.61
2023-03-31T12:30:17.928Z,31.66
2023-03-31T12:31:17.986Z,31.76
2023-03-31T12:32:17.966Z,31.82
2023-03-31T12:33:17.961Z,31.94
2023-03-31T12:34:17.986Z,31.99
2023-03-31T12:35:18.005Z,32.07
2023-03-31T12:36:18.100Z,32.13
2023-03-31T12:37:18.067Z,32.18
2023-03-31T12:38:18.099Z,32.28
2023-03-31T12:39:18.155Z,32.32
2023-03-31T12:40:18.127Z,32.34
2023-03-31T12:41:18.128Z,32.48
2023-03-31T12:42:18.120Z,32.62
2023-03-31T12:43:18.128Z,32.71
2023-03-31T12:44:18.138Z,32.96
2023-03-31T12:45:18.141Z,32.78
2023-03-31T12:46:18.194Z,32.75
2023-03-31T12:47:18.131Z,32.86
2023-03-31T12:48:18.160Z,32.82
2023-03-31T12:49:18.150Z,32.79
2023-03-31T12:50:18.174Z,32.79
2023-03-31T12:51:18.229Z,32.85
2023-03-31T12:52:18.255Z,32.86
2023-03-31T12:53:18.349Z,32.84